Time;durP1;ratioP1;P1;durP2;ratioP2;P2;SDS_P1;SDS_P2;PMS_P1;PMS_P2;Temp;Humidity;BMP_temperature;BMP_pressure;BME280_temperature;BME280_humidity;BME280_pressure;Samples;Min_cycle;Max_cycle;Signal;HPM_P1;HPM_P2
2021/09/26 00:01:57;;;;;;;16.98;5.15;;;20.40;86.80;;;;;;5074707;28;20032;-70
2021/09/26 00:04:23;;;;;;;11.77;4.15;;;20.30;87.20;;;;;;5075836;28;20447;-70
2021/09/26 00:06:48;;;;;;;12.93;4.60;;;20.30;87.60;;;;;;5075631;28;20035;-70
2021/09/26 00:09:17;;;;;;;11.82;4.85;;;20.20;87.40;;;;;;5073257;28;20409;-70
2021/09/26 00:11:43;;;;;;;11.52;4.55;;;20.40;87.30;;;;;;5074899;28;20025;-70
2021/09/26 00:14:09;;;;;;;12.05;4.43;;;20.30;87.50;;;;;;5075949;28;20016;-70
2021/09/26 00:16:35;;;;;;;12.38;4.45;;;20.20;87.80;;;;;;5075771;28;20033;-70
2021/09/26 00:19:01;;;;;;;12.50;4.75;;;20.20;87.80;;;;;;5075270;28;20065;-69
2021/09/26 00:21:27;;;;;;;9.43;4.43;;;20.20;87.90;;;;;;5075001;28;20474;-69
2021/09/26 00:23:54;;;;;;;12.52;4.82;;;20.10;88.30;;;;;;5076000;28;20032;-70
2021/09/26 00:26:19;;;;;;;13.60;4.85;;;20.00;88.50;;;;;;5074852;28;20051;-70
2021/09/26 00:28:45;;;;;;;12.05;4.60;;;19.80;89.10;;;;;;5062254;28;20409;-70
2021/09/26 00:31:11;;;;;;;12.30;4.45;;;19.70;89.30;;;;;;5073563;28;20072;-69
2021/09/26 00:33:36;;;;;;;16.33;4.95;;;19.60;89.70;;;;;;5075849;28;20055;-69
2021/09/26 00:36:02;;;;;;;13.30;5.25;;;19.80;89.00;;;;;;5075030;28;20016;-70
2021/09/26 00:38:28;;;;;;;14.82;4.90;;;19.80;89.10;;;;;;5075678;28;20110;-70
2021/09/26 00:40:54;;;;;;;13.00;4.45;;;19.60;89.60;;;;;;5074033;28;20029;-70
2021/09/26 00:43:20;;;;;;;10.32;4.60;;;19.50;90.10;;;;;;5075013;28;20032;-70
2021/09/26 00:45:46;;;;;;;16.48;4.57;;;19.50;90.30;;;;;;5075302;28;20428;-70
2021/09/26 00:48:12;;;;;;;12.73;4.57;;;19.50;90.40;;;;;;5074024;28;20107;-70
2021/09/26 00:50:41;;;;;;;13.00;4.70;;;19.50;90.60;;;;;;5074386;28;20108;-69
2021/09/26 00:53:07;;;;;;;18.05;4.80;;;19.70;89.90;;;;;;5058908;28;20029;-69
2021/09/26 00:55:33;;;;;;;17.08;4.78;;;19.80;89.70;;;;;;5057086;28;20421;-70
2021/09/26 00:58:00;;;;;;;14.05;4.70;;;19.60;90.20;;;;;;5072338;28;20028;-70
2021/09/26 01:00:26;;;;;;;11.88;4.60;;;19.50;90.70;;;;;;5074655;28;20025;-70
2021/09/26 01:02:52;;;;;;;15.70;5.63;;;19.50;90.70;;;;;;5075367;28;20094;-70
2021/09/26 01:05:20;;;;;;;12.65;4.95;;;19.40;91.10;;;;;;5075008;28;20040;-70
2021/09/26 01:08:04;;;;;;;12.30;4.75;;;19.20;91.50;;;;;;5062289;28;20096;-70
2021/09/26 01:10:29;;;;;;;9.40;4.75;;;19.10;92.00;;;;;;5066684;28;20028;-70
2021/09/26 01:13:20;;;;;;;15.18;5.13;;;19.00;92.10;;;;;;5074085;28;20364;-70
2021/09/26 01:16:03;;;;;;;18.60;6.00;;;19.00;92.40;;;;;;5073507;28;20049;-69
2021/09/26 01:18:43;;;;;;;17.38;5.63;;;18.90;92.80;;;;;;5075239;28;20321;-70
2021/09/26 01:21:24;;;;;;;12.40;5.28;;;18.70;93.30;;;;;;5074845;28;20302;-70
2021/09/26 01:24:11;;;;;;;11.38;4.97;;;18.70;93.40;;;;;;5075135;28;20405;-70
2021/09/26 01:27:03;;;;;;;14.02;5.57;;;18.60;93.80;;;;;;5068404;28;20029;-70
2021/09/26 01:29:58;;;;;;;12.93;5.45;;;18.50;94.20;;;;;;5056275;28;20048;-69
2021/09/26 01:32:27;;;;;;;10.10;5.53;;;18.40;94.60;;;;;;5075849;28;20119;-69
2021/09/26 01:34:57;;;;;;;13.43;5.47;;;18.30;95.00;;;;;;5076838;28;20024;-70
2021/09/26 01:37:31;;;;;;;14.18;5.75;;;18.30;95.10;;;;;;5079064;28;20425;-70
2021/09/26 01:40:04;;;;;;;15.18;5.63;;;18.30;95.20;;;;;;5078467;28;20453;-70
2021/09/26 01:42:35;;;;;;;10.23;5.63;;;18.30;95.30;;;;;;5077996;28;20409;-70
2021/09/26 01:45:16;;;;;;;11.15;5.40;;;18.20;95.50;;;;;;5078249;28;20028;-70
2021/09/26 01:47:48;;;;;;;16.88;6.38;;;18.20;95.70;;;;;;5062314;28;20028;-70
2021/09/26 01:50:14;;;;;;;18.02;6.65;;;18.10;95.80;;;;;;5066947;28;20035;-70
2021/09/26 01:52:44;;;;;;;15.30;6.93;;;18.00;96.20;;;;;;5078803;28;20017;-69
2021/09/26 01:55:13;;;;;;;13.85;6.32;;;17.90;96.30;;;;;;5078485;28;20423;-70
2021/09/26 01:57:40;;;;;;;14.13;6.30;;;17.90;96.40;;;;;;5075004;28;20024;-69
2021/09/26 02:00:09;;;;;;;9.82;5.45;;;17.90;96.70;;;;;;5075602;28;20448;-70
2021/09/26 02:02:35;;;;;;;10.32;5.80;;;17.90;96.70;;;;;;5078493;28;20036;-70
2021/09/26 02:05:03;;;;;;;14.73;6.38;;;17.80;96.90;;;;;;5074658;28;20017;-70
2021/09/26 02:07:34;;;;;;;12.88;6.38;;;17.80;97.00;;;;;;5076169;28;20028;-69
2021/09/26 02:10:01;;;;;;;16.63;6.20;;;17.80;96.90;;;;;;5069945;28;20029;-69
2021/09/26 02:12:28;;;;;;;16.02;6.30;;;18.00;96.70;;;;;;5077415;28;20051;-69
2021/09/26 02:14:56;;;;;;;18.02;6.30;;;18.10;96.50;;;;;;5077502;28;20045;-69
2021/09/26 02:17:26;;;;;;;14.65;6.00;;;18.10;96.50;;;;;;5078211;28;20111;-69
2021/09/26 02:19:58;;;;;;;11.82;6.10;;;18.30;96.30;;;;;;5078106;28;20021;-71
2021/09/26 02:22:24;;;;;;;11.82;6.35;;;18.50;95.80;;;;;;5077832;28;20025;-71
2021/09/26 02:24:51;;;;;;;15.48;6.07;;;18.70;95.30;;;;;;5075449;28;20052;-70
2021/09/26 02:27:19;;;;;;;11.98;5.88;;;18.70;95.20;;;;;;5061875;28;20082;-70
2021/09/26 02:29:45;;;;;;;14.68;5.70;;;18.70;95.30;;;;;;5077736;28;20520;-70
2021/09/26 02:32:10;;;;;;;12.93;6.10;;;18.60;95.30;;;;;;5077713;28;20126;-70
2021/09/26 02:34:36;;;;;;;10.93;5.95;;;18.60;95.60;;;;;;5076478;28;20040;-70
2021/09/26 02:37:02;;;;;;;10.95;5.93;;;18.50;95.90;;;;;;5077281;28;21611;-70
2021/09/26 02:39:28;;;;;;;11.82;6.10;;;18.40;96.00;;;;;;5077966;28;20028;-70
2021/09/26 02:42:21;;;;;;;13.18;6.22;;;18.40;96.10;;;;;;5057316;28;20060;-70
2021/09/26 02:44:50;;;;;;;11.65;5.82;;;18.30;96.30;;;;;;5072341;28;20309;-70
2021/09/26 02:47:24;;;;;;;12.48;6.43;;;18.30;96.30;;;;;;5076080;28;20126;-70
2021/09/26 02:49:51;;;;;;;15.70;6.38;;;18.30;96.40;;;;;;5077731;28;20113;-69
2021/09/26 02:52:17;;;;;;;10.02;6.03;;;18.30;96.40;;;;;;5070811;28;20082;-69
2021/09/26 02:54:44;;;;;;;14.68;6.80;;;18.30;96.50;;;;;;5075634;28;20052;-70
2021/09/26 02:57:11;;;;;;;17.92;7.68;;;18.30;96.40;;;;;;5065024;28;20437;-69
2021/09/26 02:59:38;;;;;;;13.23;6.53;;;18.30;96.30;;;;;;5077758;28;20290;-69
2021/09/26 03:02:05;;;;;;;16.60;6.22;;;18.30;96.20;;;;;;5076525;28;20060;-69
2021/09/26 03:04:30;;;;;;;13.40;6.75;;;18.30;96.10;;;;;;5067481;28;20032;-69
2021/09/26 03:06:59;;;;;;;12.88;6.78;;;18.30;96.20;;;;;;5061791;28;20078;-69
2021/09/26 03:09:25;;;;;;;11.40;6.25;;;18.20;96.40;;;;;;5076926;28;20388;-70
2021/09/26 03:11:50;;;;;;;13.73;6.05;;;18.20;96.70;;;;;;5076214;28;20104;-70
2021/09/26 03:14:16;;;;;;;14.88;7.20;;;18.10;96.80;;;;;;5076826;28;20040;-69
2021/09/26 03:16:42;;;;;;;16.88;6.40;;;18.00;97.00;;;;;;5076795;28;20040;-70
2021/09/26 03:19:07;;;;;;;11.65;7.07;;;17.90;97.20;;;;;;5059115;28;20115;-70
2021/09/26 03:21:33;;;;;;;10.70;6.72;;;17.80;97.50;;;;;;5057036;28;20087;-69
2021/09/26 03:23:59;;;;;;;12.90;6.60;;;17.70;97.60;;;;;;5076819;28;20039;-70
2021/09/26 03:26:25;;;;;;;12.27;6.55;;;17.60;97.90;;;;;;5075256;28;20033;-69
2021/09/26 03:28:51;;;;;;;14.32;7.40;;;17.40;98.00;;;;;;5076949;28;20087;-69
2021/09/26 03:31:17;;;;;;;13.65;7.25;;;17.30;98.00;;;;;;5076382;28;20040;-69
2021/09/26 03:33:43;;;;;;;10.23;6.47;;;17.20;98.00;;;;;;5073471;28;20028;-69
2021/09/26 03:36:09;;;;;;;15.13;7.15;;;17.10;98.00;;;;;;5065182;28;20477;-70
2021/09/26 03:38:35;;;;;;;13.77;7.30;;;17.00;98.00;;;;;;5076269;28;20067;-70
2021/09/26 03:41:01;;;;;;;14.38;7.07;;;16.90;98.00;;;;;;5061812;28;20040;-70
2021/09/26 03:43:27;;;;;;;13.23;6.50;;;16.90;98.00;;;;;;5060679;28;20060;-69
2021/09/26 03:45:53;;;;;;;15.45;7.25;;;16.90;98.00;;;;;;5074352;28;20048;-69
2021/09/26 03:48:24;;;;;;;10.88;6.55;;;16.80;98.00;;;;;;5076730;28;20029;-69
2021/09/26 03:50:51;;;;;;;12.00;7.32;;;16.70;98.00;;;;;;5076488;28;20029;-69
2021/09/26 03:53:18;;;;;;;15.93;7.85;;;16.60;98.00;;;;;;5076098;28;20058;-69
2021/09/26 03:55:44;;;;;;;14.73;7.07;;;16.50;98.00;;;;;;5074324;28;20028;-69
2021/09/26 03:58:13;;;;;;;13.95;7.30;;;16.40;98.00;;;;;;5076471;28;20031;-69
2021/09/26 04:00:39;;;;;;;12.30;7.55;;;16.30;98.00;;;;;;5074397;28;20417;-70
2021/09/26 04:03:04;;;;;;;13.07;7.80;;;16.10;98.00;;;;;;5075743;28;20043;-69
2021/09/26 04:05:33;;;;;;;16.25;7.80;;;16.00;98.00;;;;;;5058668;28;20036;-69
2021/09/26 04:07:59;;;;;;;13.75;7.78;;;15.90;98.00;;;;;;5076083;28;20033;-69
2021/09/26 04:10:24;;;;;;;12.38;7.60;;;15.70;98.00;;;;;;5063760;28;20099;-69
2021/09/26 04:12:50;;;;;;;14.40;7.95;;;15.60;97.80;;;;;;5055120;28;20368;-70
2021/09/26 04:15:18;;;;;;;12.48;7.75;;;15.50;98.00;;;;;;5064018;28;20049;-69
2021/09/26 04:17:43;;;;;;;12.82;8.25;;;15.40;97.80;;;;;;5076015;28;20317;-69
2021/09/26 04:20:10;;;;;;;15.80;8.85;;;15.40;97.70;;;;;;5075763;28;20032;-69
2021/09/26 04:22:36;;;;;;;14.73;8.10;;;15.40;97.70;;;;;;5075703;28;20037;-69
2021/09/26 04:25:02;;;;;;;15.73;8.35;;;15.40;97.60;;;;;;5076010;28;20028;-69
2021/09/26 04:27:28;;;;;;;13.45;8.18;;;15.40;97.70;;;;;;5074102;28;20028;-69
2021/09/26 04:29:54;;;;;;;16.92;8.73;;;15.40;97.80;;;;;;5075333;28;20489;-69
2021/09/26 04:32:20;;;;;;;15.63;8.55;;;15.40;97.90;;;;;;5075808;28;20048;-69
2021/09/26 04:34:46;;;;;;;20.42;8.75;;;15.40;97.90;;;;;;5073463;28;20082;-69
2021/09/26 04:37:52;;;;;;;17.00;8.18;;;15.40;97.80;;;;;;5072879;28;20409;-71
2021/09/26 04:40:21;;;;;;;19.15;9.18;;;15.40;97.80;;;;;;5073867;28;20037;-69
2021/09/26 04:42:47;;;;;;;14.50;8.70;;;15.40;98.00;;;;;;5073208;28;20028;-69
2021/09/26 04:45:16;;;;;;;17.27;8.82;;;15.30;98.00;;;;;;5073295;28;20025;-69
2021/09/26 04:47:47;;;;;;;19.08;8.73;;;15.20;97.80;;;;;;5073969;28;20032;-70
2021/09/26 04:50:13;;;;;;;14.90;8.18;;;15.10;97.90;;;;;;5074187;28;20028;-69
2021/09/26 04:52:39;;;;;;;15.40;8.27;;;15.00;97.90;;;;;;5074369;28;20432;-68
2021/09/26 04:55:16;;;;;;;14.77;8.27;;;14.90;97.80;;;;;;5073833;28;20058;-69
2021/09/26 04:58:00;;;;;;;17.33;8.73;;;15.00;97.50;;;;;;5073968;28;20313;-69
2021/09/26 05:00:26;;;;;;;16.80;8.95;;;15.00;97.50;;;;;;5073891;28;20391;-68
2021/09/26 05:02:56;;;;;;;17.30;8.40;;;14.90;97.20;;;;;;5073136;28;20093;-69
2021/09/26 05:05:25;;;;;;;13.90;8.52;;;14.90;97.40;;;;;;5073278;28;20028;-69
2021/09/26 05:07:55;;;;;;;18.05;9.57;;;14.80;97.40;;;;;;5069648;28;20025;-68
2021/09/26 05:10:21;;;;;;;15.52;9.18;;;14.80;97.20;;;;;;5074425;28;20413;-68
2021/09/26 05:12:47;;;;;;;18.15;9.07;;;14.80;97.30;;;;;;5070112;28;20028;-70
2021/09/26 05:15:16;;;;;;;14.75;9.23;;;14.80;97.10;;;;;;5074683;28;20341;-70
2021/09/26 05:17:42;;;;;;;17.58;8.95;;;14.80;97.30;;;;;;5075284;28;20017;-69
2021/09/26 05:20:08;;;;;;;16.63;8.85;;;14.90;97.20;;;;;;5075098;28;20040;-70
2021/09/26 05:22:34;;;;;;;15.00;8.70;;;14.90;97.30;;;;;;5075226;28;20024;-70
2021/09/26 05:25:00;;;;;;;18.92;9.05;;;15.00;97.50;;;;;;5074738;28;20108;-69
2021/09/26 05:27:26;;;;;;;14.93;9.18;;;15.10;97.80;;;;;;5072830;28;20131;-69
2021/09/26 05:29:52;;;;;;;17.63;9.27;;;15.00;97.80;;;;;;5074462;28;20035;-69
2021/09/26 05:32:17;;;;;;;14.95;8.65;;;15.00;97.70;;;;;;5074494;28;20024;-69
2021/09/26 05:34:44;;;;;;;16.95;9.63;;;15.10;97.90;;;;;;5071781;28;20191;-69
2021/09/26 05:37:11;;;;;;;15.65;9.13;;;15.00;97.90;;;;;;5074467;28;20032;-69
2021/09/26 05:39:37;;;;;;;19.67;9.23;;;14.90;98.00;;;;;;5073764;28;20317;-69
2021/09/26 05:42:03;;;;;;;13.98;8.48;;;14.90;97.80;;;;;;5073734;28;20059;-69
2021/09/26 05:44:35;;;;;;;15.23;9.10;;;14.80;97.60;;;;;;5059738;28;20321;-69
2021/09/26 05:47:02;;;;;;;19.08;9.60;;;14.90;97.70;;;;;;5055757;28;20422;-69
2021/09/26 05:49:27;;;;;;;16.48;8.93;;;14.90;97.70;;;;;;5073170;28;20420;-69
2021/09/26 05:51:53;;;;;;;18.25;8.98;;;14.90;97.80;;;;;;5070304;28;20025;-69
2021/09/26 05:54:20;;;;;;;17.05;9.05;;;15.00;97.70;;;;;;5068804;28;20028;-69
2021/09/26 05:56:46;;;;;;;14.63;8.63;;;15.10;97.80;;;;;;5063688;28;20021;-69
2021/09/26 05:59:12;;;;;;;15.85;9.70;;;15.20;97.90;;;;;;5073718;28;20085;-69
2021/09/26 06:01:39;;;;;;;17.10;8.25;;;15.30;98.00;;;;;;5061391;28;20333;-69
2021/09/26 06:04:04;;;;;;;15.25;8.80;;;15.40;98.00;;;;;;5066074;28;20032;-70
2021/09/26 06:06:33;;;;;;;15.73;8.25;;;15.40;98.00;;;;;;5072454;28;20036;-69
2021/09/26 06:08:58;;;;;;;16.88;8.73;;;15.40;98.00;;;;;;5073681;28;20025;-69
2021/09/26 06:11:24;;;;;;;15.07;8.68;;;15.50;98.00;;;;;;5071571;28;20107;-69
2021/09/26 06:13:50;;;;;;;15.40;9.00;;;15.50;98.00;;;;;;5074237;28;20368;-68
2021/09/26 06:16:15;;;;;;;17.45;9.07;;;15.60;98.00;;;;;;5087609;28;20068;-69
2021/09/26 06:18:41;;;;;;;14.50;9.55;;;15.60;98.00;;;;;;5075874;28;20021;-69
2021/09/26 06:21:07;;;;;;;20.25;8.98;;;15.60;98.00;;;;;;5067912;28;20406;-68
2021/09/26 06:23:32;;;;;;;14.90;9.18;;;15.60;98.00;;;;;;5077091;28;20033;-69
2021/09/26 06:26:00;;;;;;;13.68;8.32;;;15.70;98.00;;;;;;5065766;28;20037;-69
2021/09/26 06:28:28;;;;;;;14.35;7.75;;;15.80;98.00;;;;;;5077745;28;20043;-70
2021/09/26 06:30:54;;;;;;;14.63;7.88;;;15.90;98.00;;;;;;5073435;28;20444;-69
2021/09/26 06:33:20;;;;;;;12.55;7.68;;;16.00;98.00;;;;;;5059189;28;20033;-69
2021/09/26 06:35:46;;;;;;;13.10;7.88;;;16.10;98.00;;;;;;5069891;28;20021;-69
2021/09/26 06:38:11;;;;;;;13.48;8.10;;;16.20;98.00;;;;;;5076937;28;20401;-69
2021/09/26 06:40:37;;;;;;;18.27;7.95;;;16.30;98.00;;;;;;5064225;28;20082;-69
2021/09/26 06:43:03;;;;;;;14.10;8.30;;;16.40;98.00;;;;;;5074619;28;20029;-69
2021/09/26 06:45:28;;;;;;;14.85;7.95;;;16.50;98.00;;;;;;5076415;28;20029;-69
2021/09/26 06:47:54;;;;;;;10.45;7.20;;;16.70;98.00;;;;;;5077376;28;20029;-69
2021/09/26 06:50:20;;;;;;;14.13;7.47;;;16.80;98.00;;;;;;5071971;28;20116;-69
2021/09/26 06:52:46;;;;;;;12.23;6.95;;;16.90;98.00;;;;;;5059450;28;20092;-69
2021/09/26 06:55:12;;;;;;;12.40;7.40;;;17.10;98.00;;;;;;5075705;28;20021;-68
2021/09/26 06:57:37;;;;;;;10.55;7.20;;;17.40;98.00;;;;;;5074830;28;20021;-68
2021/09/26 07:00:09;;;;;;;12.38;6.63;;;17.60;98.00;;;;;;5071867;28;20326;-69
2021/09/26 07:02:35;;;;;;;12.60;6.97;;;17.80;98.00;;;;;;5057924;28;20025;-69
2021/09/26 07:05:01;;;;;;;10.88;6.40;;;18.10;98.00;;;;;;5058534;28;20363;-68
2021/09/26 07:07:26;;;;;;;12.85;6.80;;;18.50;98.00;;;;;;5074305;28;20405;-69
2021/09/26 07:09:55;;;;;;;13.77;6.88;;;18.70;97.50;;;;;;5076215;28;20024;-70
2021/09/26 07:12:21;;;;;;;9.82;6.45;;;18.80;97.20;;;;;;5074949;28;20086;-69
2021/09/26 07:14:47;;;;;;;12.30;7.15;;;19.00;97.30;;;;;;5077095;28;20032;-69
2021/09/26 07:17:13;;;;;;;12.98;7.00;;;19.00;96.80;;;;;;5076531;28;20123;-69
2021/09/26 07:19:39;;;;;;;11.77;6.78;;;19.00;96.80;;;;;;5067811;28;20037;-69
2021/09/26 07:22:05;;;;;;;10.75;7.07;;;19.00;97.00;;;;;;5061160;28;20120;-69
2021/09/26 07:24:31;;;;;;;10.90;6.75;;;19.20;96.80;;;;;;5060869;28;20465;-69
2021/09/26 07:26:57;;;;;;;11.40;6.57;;;19.30;96.40;;;;;;5066013;28;20360;-69
2021/09/26 07:29:23;;;;;;;14.82;6.28;;;19.40;95.80;;;;;;5072103;28;20032;-69
2021/09/26 07:31:51;;;;;;;11.52;5.72;;;19.70;95.80;;;;;;5068050;28;20037;-69
2021/09/26 07:34:16;;;;;;;13.15;6.47;;;20.10;95.30;;;;;;5077051;28;20286;-70
2021/09/26 07:36:43;;;;;;;10.27;5.85;;;20.40;93.50;;;;;;5076546;28;20025;-69
2021/09/26 07:39:09;;;;;;;8.45;5.68;;;20.60;92.90;;;;;;5076556;28;20048;-69
2021/09/26 07:41:34;;;;;;;11.32;6.43;;;20.80;93.00;;;;;;5071350;28;20055;-69
2021/09/26 07:44:00;;;;;;;12.25;6.65;;;20.80;92.50;;;;;;5072183;28;20033;-69
2021/09/26 07:46:26;;;;;;;12.90;7.35;;;20.50;92.80;;;;;;5071771;28;20134;-69
2021/09/26 07:48:52;;;;;;;12.82;6.82;;;20.20;93.50;;;;;;5076795;28;20060;-69
2021/09/26 07:51:18;;;;;;;14.45;6.80;;;19.90;94.30;;;;;;5075245;28;20031;-69
2021/09/26 07:53:43;;;;;;;15.82;7.50;;;19.30;95.10;;;;;;5076889;28;20024;-69
2021/09/26 07:56:09;;;;;;;12.13;8.05;;;19.00;96.20;;;;;;5074807;28;20024;-69
2021/09/26 07:58:35;;;;;;;12.88;7.70;;;18.70;96.90;;;;;;5073351;28;20097;-68
2021/09/26 08:01:04;;;;;;;15.02;7.20;;;18.50;97.60;;;;;;5074384;28;20041;-69
2021/09/26 08:03:29;;;;;;;11.80;7.03;;;18.40;97.70;;;;;;5059578;28;20334;-68
2021/09/26 08:05:55;;;;;;;18.52;7.72;;;18.20;97.90;;;;;;5063977;28;20021;-67
2021/09/26 08:08:22;;;;;;;11.52;7.10;;;18.10;98.00;;;;;;5073886;28;20052;-70
2021/09/26 08:10:48;;;;;;;14.00;8.05;;;18.00;98.00;;;;;;5069086;28;20320;-70
2021/09/26 08:13:17;;;;;;;13.75;6.95;;;17.80;98.00;;;;;;5071705;28;20021;-70
2021/09/26 08:15:44;;;;;;;13.77;7.88;;;17.70;98.00;;;;;;5075434;28;20029;-69
2021/09/26 08:18:10;;;;;;;13.63;8.07;;;17.60;98.00;;;;;;5075329;28;20127;-70
2021/09/26 08:20:36;;;;;;;14.27;8.40;;;17.60;98.00;;;;;;5071965;28;20120;-70
2021/09/26 08:23:01;;;;;;;12.85;8.60;;;17.50;98.00;;;;;;5057025;28;20025;-70
2021/09/26 08:25:30;;;;;;;16.95;9.77;;;17.30;98.00;;;;;;5062529;28;20029;-69
2021/09/26 08:27:57;;;;;;;18.95;10.82;;;17.20;98.00;;;;;;5070684;28;20032;-69
2021/09/26 08:30:23;;;;;;;17.85;11.25;;;17.20;98.00;;;;;;5075000;28;20397;-69
2021/09/26 08:32:49;;;;;;;17.55;9.73;;;17.20;98.00;;;;;;5075401;28;20104;-69
2021/09/26 08:35:16;;;;;;;18.38;11.43;;;17.10;98.00;;;;;;5070731;28;20033;-69
2021/09/26 08:37:41;;;;;;;14.43;11.30;;;17.00;98.00;;;;;;5066453;28;20028;-69
2021/09/26 08:40:08;;;;;;;16.05;11.18;;;16.90;98.00;;;;;;5070648;28;20071;-68
2021/09/26 08:42:37;;;;;;;18.50;11.18;;;16.80;98.00;;;;;;5059749;28;20103;-69
2021/09/26 08:45:04;;;;;;;19.17;12.68;;;16.80;98.00;;;;;;5074383;28;20032;-68
2021/09/26 08:47:36;;;;;;;18.70;13.63;;;16.70;98.00;;;;;;5071836;28;20020;-69
2021/09/26 08:50:03;;;;;;;19.67;12.00;;;16.70;98.00;;;;;;5057498;28;20101;-69
2021/09/26 08:52:29;;;;;;;19.70;12.63;;;16.60;98.00;;;;;;5071238;28;20099;-68
2021/09/26 08:54:54;;;;;;;20.77;13.35;;;16.60;98.00;;;;;;5075084;28;20059;-69
2021/09/26 08:57:22;;;;;;;21.02;12.88;;;16.60;98.00;;;;;;5070307;28;20028;-69
2021/09/26 08:59:48;;;;;;;17.95;13.15;;;16.60;98.00;;;;;;5069373;28;20013;-70
2021/09/26 09:02:16;;;;;;;21.25;14.30;;;16.50;98.00;;;;;;5075676;28;20024;-69
2021/09/26 09:04:42;;;;;;;22.10;14.25;;;16.40;98.00;;;;;;5071588;28;20417;-70
2021/09/26 09:07:10;;;;;;;21.15;14.70;;;16.40;98.00;;;;;;5073370;28;20035;-69
2021/09/26 09:09:55;;;;;;;20.15;15.05;;;16.20;98.00;;;;;;5075553;28;20024;-70
2021/09/26 09:12:41;;;;;;;;;;;16.10;98.00;;;;;;5058093;28;20031;-70
2021/09/26 09:15:13;;;;;;;23.00;15.60;;;16.10;98.00;;;;;;5070199;28;19916;-70
2021/09/26 09:17:42;;;;;;;25.67;14.77;;;16.10;98.00;;;;;;5074331;28;20314;-69
2021/09/26 09:20:27;;;;;;;21.98;14.73;;;16.10;98.00;;;;;;5068753;28;20026;-68
2021/09/26 09:23:04;;;;;;;18.10;13.73;;;16.10;98.00;;;;;;5060973;28;20023;-68
2021/09/26 09:25:43;;;;;;;20.77;14.75;;;16.20;98.00;;;;;;5074880;28;20020;-68
2021/09/26 09:28:13;;;;;;;17.17;13.27;;;16.30;98.00;;;;;;5068036;28;20055;-68
2021/09/26 09:30:50;;;;;;;16.20;12.02;;;16.40;98.00;;;;;;5073986;28;20052;-69
2021/09/26 09:33:17;;;;;;;18.60;12.65;;;16.50;98.00;;;;;;5073875;28;20028;-70
2021/09/26 09:35:51;;;;;;;19.75;11.90;;;16.50;98.00;;;;;;5068616;28;20089;-70
2021/09/26 09:38:33;;;;;;;16.40;12.50;;;16.50;98.00;;;;;;5074245;28;20052;-69
2021/09/26 09:41:01;;;;;;;18.05;13.68;;;16.60;98.00;;;;;;5072687;28;20039;-69
2021/09/26 09:43:27;;;;;;;19.48;13.15;;;16.70;98.00;;;;;;5075329;28;20447;-69
2021/09/26 09:46:01;;;;;;;19.20;12.75;;;16.70;98.00;;;;;;5075088;28;20028;-69
2021/09/26 09:48:32;;;;;;;14.32;10.18;;;16.70;98.00;;;;;;5074847;28;20381;-70
2021/09/26 09:51:03;;;;;;;12.60;9.77;;;16.60;98.00;;;;;;5073781;28;20414;-70
2021/09/26 09:53:34;;;;;;;10.85;8.15;;;16.60;98.00;;;;;;5070339;28;20079;-69
2021/09/26 09:56:20;;;;;;;15.70;10.50;;;16.60;98.00;;;;;;5075502;28;20110;-69
2021/09/26 09:58:48;;;;;;;13.27;9.88;;;16.70;98.00;;;;;;5068056;28;20055;-69
2021/09/26 10:01:25;;;;;;;9.13;6.40;;;16.70;98.00;;;;;;5076996;28;20699;-70
2021/09/26 10:03:56;;;;;;;11.57;7.05;;;16.80;98.00;;;;;;5078357;28;20029;-69
2021/09/26 10:06:30;;;;;;;12.75;8.40;;;16.90;98.00;;;;;;5078626;28;20035;-70
2021/09/26 10:09:15;;;;;;;13.82;8.00;;;17.10;98.00;;;;;;5075407;28;20020;-69
2021/09/26 10:12:03;;;;;;;;;;;17.10;98.00;;;;;;5073458;28;20124;-70
2021/09/26 10:14:34;;;;;;;10.93;7.30;;;17.20;98.00;;;;;;5072802;28;20331;-70
2021/09/26 10:17:03;;;;;;;10.82;7.25;;;17.40;98.00;;;;;;5077728;28;20048;-70
2021/09/26 10:19:30;;;;;;;10.38;7.53;;;17.50;98.00;;;;;;5058477;28;20033;-70
2021/09/26 10:21:59;;;;;;;10.98;7.80;;;17.60;98.00;;;;;;5070057;28;20063;-69
2021/09/26 10:24:32;;;;;;;11.70;7.60;;;17.60;98.00;;;;;;5075581;28;20020;-70
2021/09/26 10:27:01;;;;;;;10.85;7.82;;;17.70;98.00;;;;;;5074023;28;20321;-70
2021/09/26 10:29:31;;;;;;;11.45;7.72;;;17.60;98.00;;;;;;5074443;28;20073;-69
2021/09/26 10:32:00;;;;;;;10.63;8.32;;;17.60;98.00;;;;;;5064816;28;20025;-69
2021/09/26 10:34:26;;;;;;;10.85;7.68;;;17.60;98.00;;;;;;5076278;28;20074;-69
2021/09/26 10:36:52;;;;;;;12.70;8.57;;;17.50;98.00;;;;;;5077779;28;20024;-69
2021/09/26 10:39:18;;;;;;;12.77;9.43;;;17.40;98.00;;;;;;5076291;28;20024;-69
2021/09/26 10:42:17;;;;;;;14.52;10.43;;;17.30;98.00;;;;;;5072654;28;20456;-68
2021/09/26 10:44:45;;;;;;;15.35;9.98;;;17.20;98.00;;;;;;5067642;28;20224;-69
2021/09/26 10:47:18;;;;;;;16.45;11.07;;;17.00;98.00;;;;;;5069363;28;20074;-69
2021/09/26 10:50:14;;;;;;;14.82;12.27;;;16.90;98.00;;;;;;5060997;28;20037;-69
2021/09/26 10:52:47;;;;;;;16.42;11.50;;;16.70;98.00;;;;;;5060355;28;20033;-69
2021/09/26 10:55:18;;;;;;;15.50;11.27;;;16.60;98.00;;;;;;5073709;28;20032;-69
2021/09/26 10:58:00;;;;;;;15.98;11.18;;;16.50;98.00;;;;;;5070273;28;20021;-69
2021/09/26 11:00:30;;;;;;;15.93;11.75;;;16.60;98.00;;;;;;5063740;28;20036;-68
2021/09/26 11:02:56;;;;;;;15.63;11.10;;;16.60;98.00;;;;;;5066719;28;20025;-68
2021/09/26 11:05:43;;;;;;;17.33;12.15;;;16.70;98.00;;;;;;5066831;28;20448;-69
2021/09/26 11:08:41;;;;;;;13.98;10.50;;;16.70;98.00;;;;;;5065872;28;20078;-68
2021/09/26 11:11:07;;;;;;;15.10;11.73;;;16.90;98.00;;;;;;5064682;28;20383;-68
2021/09/26 11:13:39;;;;;;;14.45;10.02;;;17.10;98.00;;;;;;5067105;28;20099;-68
2021/09/26 11:16:12;;;;;;;11.90;8.20;;;17.30;98.00;;;;;;5072855;28;20017;-70
2021/09/26 11:18:55;;;;;;;13.93;8.25;;;17.70;97.40;;;;;;5062768;28;20621;-69
2021/09/26 11:21:40;;;;;;;14.45;8.80;;;18.00;97.80;;;;;;5060146;28;20037;-69
2021/09/26 11:24:20;;;;;;;;;;;18.40;97.80;;;;;;5074816;28;20253;-69
2021/09/26 11:27:11;;;;;;;9.55;7.57;;;18.60;97.30;;;;;;5063754;28;20263;-68
2021/09/26 11:29:41;;;;;;;15.82;8.90;;;18.60;97.30;;;;;;5074220;28;20025;-69
2021/09/26 11:32:15;;;;;;;8.70;6.63;;;18.70;98.00;;;;;;5059737;28;20056;-69
2021/09/26 11:34:51;;;;;;;8.38;6.47;;;18.70;95.50;;;;;;5072682;28;20409;-69
2021/09/26 11:37:19;;;;;;;9.85;7.40;;;18.80;95.20;;;;;;5076893;28;20052;-69
2021/09/26 11:39:54;;;;;;;11.18;6.25;;;18.90;96.70;;;;;;5069140;28;20028;-68
2021/09/26 11:42:34;;;;;;;10.68;6.93;;;19.00;94.60;;;;;;5060990;28;20417;-70
2021/09/26 11:45:05;;;;;;;8.38;6.40;;;19.10;95.30;;;;;;5068531;28;20032;-68
2021/09/26 11:47:31;;;;;;;8.48;6.18;;;19.50;94.70;;;;;;5060279;28;20025;-69
2021/09/26 11:50:10;;;;;;;7.68;5.13;;;19.70;93.00;;;;;;5063681;28;20078;-68
2021/09/26 11:52:44;;;;;;;7.82;5.30;;;19.70;88.70;;;;;;5068828;28;20392;-68
2021/09/26 11:55:13;;;;;;;9.05;4.97;;;19.60;90.20;;;;;;5074988;28;20029;-69
2021/09/26 11:57:39;;;;;;;6.88;5.05;;;19.60;89.90;;;;;;5072005;28;20031;-69
2021/09/26 12:00:21;;;;;;;7.50;5.50;;;19.70;92.00;;;;;;5066456;28;20103;-69
2021/09/26 12:02:47;;;;;;;7.68;5.53;;;20.00;90.90;;;;;;5070909;28;20032;-69
2021/09/26 12:05:12;;;;;;;7.85;5.20;;;20.10;90.20;;;;;;5071017;28;20086;-70
2021/09/26 12:07:38;;;;;;;9.23;5.00;;;20.30;87.80;;;;;;5056986;28;20025;-69
2021/09/26 12:10:16;;;;;;;6.15;4.30;;;20.50;88.50;;;;;;5060010;28;20029;-69
2021/09/26 12:12:42;;;;;;;8.35;5.50;;;20.90;86.20;;;;;;5065614;28;20108;-68
2021/09/26 12:15:12;;;;;;;8.55;4.93;;;21.20;88.40;;;;;;5062798;28;20105;-68
2021/09/26 12:17:38;;;;;;;6.55;4.35;;;21.50;84.90;;;;;;5071510;28;20130;-69
2021/09/26 12:20:08;;;;;;;7.50;4.50;;;21.60;84.60;;;;;;5073491;28;20342;-69
2021/09/26 12:22:35;;;;;;;6.60;5.03;;;21.70;82.20;;;;;;5066792;28;20409;-68
2021/09/26 12:25:07;;;;;;;6.63;4.55;;;22.10;84.30;;;;;;5073786;28;20430;-68
2021/09/26 12:27:35;;;;;;;7.72;4.85;;;22.50;83.90;;;;;;5074268;28;20024;-69
2021/09/26 12:30:13;;;;;;;7.43;4.53;;;22.80;81.70;;;;;;5064185;28;20021;-69
2021/09/26 12:32:47;;;;;;;8.63;4.65;;;22.80;81.80;;;;;;5061643;28;20020;-69
2021/09/26 12:35:24;;;;;;;7.05;5.05;;;22.90;81.20;;;;;;5075956;28;20021;-68
2021/09/26 12:37:55;;;;;;;6.60;3.83;;;23.00;80.50;;;;;;5066356;28;20036;-70
2021/09/26 12:40:27;;;;;;;7.43;5.05;;;22.50;80.90;;;;;;5070167;28;20025;-69
2021/09/26 12:42:55;;;;;;;9.43;5.07;;;22.40;81.60;;;;;;5071567;28;20334;-67
2021/09/26 12:45:43;;;;;;;7.22;5.00;;;22.10;83.10;;;;;;5072805;28;20158;-68
2021/09/26 12:48:12;;;;;;;9.57;5.05;;;21.80;83.50;;;;;;5071531;28;20111;-68
2021/09/26 12:50:43;;;;;;;7.18;5.18;;;21.90;83.90;;;;;;5060664;28;20029;-69